Aeroporto :
LOGIN :

Iscrizione | Disclaimer

   EN    FR    IT 

 










Sommario :    VFR   VFR Marginale   IFR   IFR Intensivo   IFR Molto Intensivo
Visibilità : 
Base nubi : 
>= 8 km
>= 3000ft
5 / 8 km
1000 / 3000 ft
1500m / 5 km
500 / 1000 ft
800 / 1500m
200 / 500 ft
< 800m
< 200 ft
Simboli :   Temporali  Nebbia  Neve Forte  Precipitazioni Forti  Vento > 20 kt
SIGMETs :   Varie  Temporali  Ghiacco  Turbolenza  Onda orograficha  Ceneri Vulcaniche






- Altitudine del aeroporto : 375 ft
- Codice IATA : MST


EHBK - Maastricht Aachen

ULTIMO METAR :
  • 270655Z AUTO 20015KT 170V230 6000 -RA FEW008 BKN015CB BKN020 07/06 Q1009 REDZRA NOSIG

METARs OBSOLETI :
  • 270625Z AUTO 20014KT 9999 OVC017 07/06 Q1009 NOSIG
  • 270555Z AUTO 20016KT 9999 FEW014 BKN017 OVC021 07/06 Q1009 NOSIG
  • 270525Z AUTO 20017KT 9999 FEW017 OVC020 07/06 Q1009 NOSIG
  • 270455Z AUTO 20017KT 9999 BKN016 OVC019 07/06 Q1009 NOSIG
  • 270425Z AUTO 20017KT 160V220 9999 -SHRA FEW015CB BKN025 BKN028 07/06 Q1009 REDZ

TAF TAF EHBK
Valido dal 27 a 06 ore il 28 a 12 ore UTC


270512Z 2706/2812 20015KT 9999 BKN020
PROB40
TEMPO 2706/2708 6000 -RADZ BKN012
TEMPO 2713/2717 6000 RA -SHRA BKN012 FEW020TCU
TEMPO 2722/2801 6000 RA BKN012
BECMG 2723/2802 23017G27KT
PROB30
TEMPO 2801/2808 6000 SHRA RA BKN012 SCT015CB



MetMap, La meteo Aeronautica in un colpo d'occhio ! - Copyright ORBIFLY Dicembre 2007 - Disclaimer

ORBIFLY MET'MAP TEAM :

Programmazione e sviluppo : Alexandra Zaïnal
Concezione : Baudouin d'Aumeries
Aiuto per la programmazione : Marc-Olivier Méhu
Supporto tecnico e logistico : Manuel Goepfert
Aiuto per la traduzione : Arnaldo La Scala

Contatto : metmap@orbifly.com




FONTI E CREDITI :

   NOAA